XS83 weather

Methodist Hospital Heliport
San Antonio, Texas, United States

Public forecast

Using degrees Fahrenheit for public forecast. Weather courtesy of forecast.io.

Closest aviation weather report (METAR) to Methodist Hospital Heliport

Closest report is San Antonio International Airport, 5.5 nm (10.1 km) ENE. Retrieved 2020/08/06 23:51 UTC (55 minutes ago):

KSAT 062351Z 16014G23KT 10SM FEW070 36/18 A2993 RMK AO2 SLP113 T03560178 10372 20328 56013

Closest aviation forecast (TAF) to Methodist Hospital Heliport

Closest forecast is San Antonio International Airport, 5.5 nm (10.1 km) ENE. Retrieved 2020-08-07 00:24 UTC (22 minutes ago):

TAF KSAT 062323Z 0700/0806 17008G18KT P6SM SCT250 FM070400 15011KT P6SM FEW250 FM071100 17006KT P6SM BKN014 FM071500 18011KT P6SM BKN050